createdAt,value
2023-04-20T00:01:11.035Z,4.10
2023-04-20T00:03:38.568Z,4.00
2023-04-20T00:06:06.260Z,4.00
2023-04-20T00:08:33.527Z,4.00
2023-04-20T00:11:00.764Z,3.90
2023-04-20T00:13:28.122Z,3.90
2023-04-20T00:15:55.404Z,3.90
2023-04-20T00:18:22.704Z,3.80
2023-04-20T00:20:50.097Z,3.70
2023-04-20T00:23:18.718Z,3.70
2023-04-20T00:25:50.504Z,3.70
2023-04-20T00:28:19.353Z,3.60
2023-04-20T00:30:51.089Z,3.60
2023-04-20T00:33:19.758Z,3.50
2023-04-20T00:35:54.891Z,3.50
2023-04-20T00:38:25.361Z,3.50
2023-04-20T00:40:55.479Z,3.40
2023-04-20T00:43:28.177Z,3.40
2023-04-20T00:45:56.779Z,3.40
2023-04-20T00:48:26.074Z,3.40
2023-04-20T00:50:55.422Z,3.40
2023-04-20T00:53:24.883Z,3.40
2023-04-20T00:55:54.540Z,3.40
2023-04-20T00:58:24.937Z,3.40
2023-04-20T01:00:53.936Z,3.40
2023-04-20T01:03:22.969Z,3.40
2023-04-20T01:05:51.728Z,3.30
2023-04-20T01:08:18.994Z,3.30
2023-04-20T01:10:46.438Z,3.30
2023-04-20T01:13:13.692Z,3.30
2023-04-20T01:15:40.966Z,3.30
2023-04-20T01:18:09.676Z,3.30
2023-04-20T01:20:38.586Z,3.20
2023-04-20T01:23:05.784Z,3.20
2023-04-20T01:25:33.138Z,3.20
2023-04-20T01:28:00.550Z,3.20
2023-04-20T01:30:29.694Z,3.20
2023-04-20T01:32:56.941Z,3.30
2023-04-20T01:35:24.322Z,3.40
2023-04-20T01:37:52.036Z,3.40
2023-04-20T01:40:19.325Z,3.40
2023-04-20T01:42:46.575Z,3.40
2023-04-20T01:45:13.870Z,3.40
2023-04-20T01:47:41.174Z,3.50
2023-04-20T01:50:08.876Z,3.50
2023-04-20T01:52:36.268Z,3.40
2023-04-20T01:55:03.576Z,3.40
2023-04-20T01:57:30.829Z,3.40
2023-04-20T01:59:58.078Z,3.30
2023-04-20T02:02:25.434Z,3.30
2023-04-20T02:04:53.449Z,3.30
2023-04-20T02:07:21.089Z,3.30
2023-04-20T02:09:48.445Z,3.20
2023-04-20T02:12:15.900Z,3.20
2023-04-20T02:14:43.131Z,3.20
2023-04-20T02:17:10.999Z,3.20
2023-04-20T02:19:38.270Z,3.20
2023-04-20T02:22:05.728Z,3.20
2023-04-20T02:24:33.429Z,3.10
2023-04-20T02:27:01.523Z,3.10
2023-04-20T02:29:28.776Z,3.10
2023-04-20T02:31:56.098Z,3.00
2023-04-20T02:34:24.329Z,3.00
2023-04-20T02:36:51.558Z,3.00
2023-04-20T02:39:19.347Z,3.00
2023-04-20T02:41:46.792Z,3.00
2023-04-20T02:44:14.172Z,2.90
2023-04-20T02:46:41.608Z,2.90
2023-04-20T02:49:09.330Z,2.80
2023-04-20T02:51:40.998Z,2.80
2023-04-20T02:54:08.275Z,2.80
2023-04-20T02:56:36.237Z,2.80
2023-04-20T02:59:07.685Z,2.80
2023-04-20T03:01:53.927Z,2.70
2023-04-20T03:04:25.925Z,2.80
2023-04-20T03:07:04.192Z,2.70
2023-04-20T03:09:34.440Z,2.70
2023-04-20T03:12:14.516Z,2.70
2023-04-20T03:15:00.842Z,2.70
2023-04-20T03:17:40.264Z,2.60
2023-04-20T03:20:09.322Z,2.60
2023-04-20T03:22:37.433Z,2.70
2023-04-20T03:25:06.540Z,2.60
2023-04-20T03:27:49.040Z,2.60
2023-04-20T03:30:16.500Z,2.60
2023-04-20T03:32:47.167Z,2.60
2023-04-20T03:35:14.642Z,2.50
2023-04-20T03:37:43.277Z,2.50
2023-04-20T03:40:11.213Z,2.50
2023-04-20T03:42:38.539Z,2.50
2023-04-20T03:45:07.265Z,2.50
2023-04-20T03:47:34.576Z,2.50
2023-04-20T03:50:01.905Z,2.50
2023-04-20T03:52:29.226Z,2.50
2023-04-20T03:54:57.658Z,2.50
2023-04-20T03:57:25.052Z,2.40
2023-04-20T03:59:52.373Z,2.50
2023-04-20T04:02:22.916Z,2.40
2023-04-20T04:04:51.895Z,2.40
2023-04-20T04:07:21.619Z,2.40
2023-04-20T04:09:49.990Z,2.40
2023-04-20T04:12:18.085Z,2.30
2023-04-20T04:14:46.651Z,2.30
2023-04-20T04:17:16.003Z,2.30
2023-04-20T04:19:43.765Z,2.30
2023-04-20T04:22:11.235Z,2.30
2023-04-20T04:24:47.074Z,2.30
2023-04-20T04:27:16.531Z,2.30
2023-04-20T04:29:52.445Z,2.30
2023-04-20T04:32:21.748Z,2.30
2023-04-20T04:34:50.386Z,2.30
2023-04-20T04:37:17.811Z,2.40
2023-04-20T04:39:51.268Z,2.40
2023-04-20T04:42:27.746Z,2.40
2023-04-20T04:44:56.322Z,2.50
2023-04-20T04:47:34.630Z,2.50
2023-04-20T04:50:06.071Z,2.60
2023-04-20T04:52:33.949Z,2.60
2023-04-20T04:55:01.284Z,2.60
2023-04-20T04:57:28.790Z,2.70
2023-04-20T04:59:56.007Z,2.80
2023-04-20T05:02:23.298Z,2.90
2023-04-20T05:04:50.743Z,3.00
2023-04-20T05:07:18.276Z,3.00
2023-04-20T05:09:45.521Z,3.10
2023-04-20T05:12:12.765Z,3.10
2023-04-20T05:14:40.092Z,3.20
2023-04-20T05:17:07.371Z,3.30
2023-04-20T05:19:34.604Z,3.40
2023-04-20T05:22:01.806Z,3.40
2023-04-20T05:24:29.288Z,3.50
2023-04-20T05:26:56.568Z,3.60
2023-04-20T05:29:23.761Z,3.70
2023-04-20T05:31:51.032Z,3.80
2023-04-20T05:34:18.462Z,3.90
2023-04-20T05:36:47.201Z,4.00
2023-04-20T05:39:14.441Z,4.00
2023-04-20T05:41:41.721Z,4.10
2023-04-20T05:44:09.069Z,4.20
2023-04-20T05:46:36.306Z,4.30
2023-04-20T05:49:03.746Z,4.40
2023-04-20T05:51:34.021Z,4.50
2023-04-20T05:54:01.599Z,4.50
2023-04-20T05:56:28.903Z,4.60
2023-04-20T05:58:57.265Z,4.60
2023-04-20T06:01:24.484Z,4.70
2023-04-20T06:03:52.006Z,4.70
2023-04-20T06:06:19.340Z,4.70
2023-04-20T06:08:46.635Z,4.80
2023-04-20T06:11:13.933Z,4.80
2023-04-20T06:13:41.411Z,4.90
2023-04-20T06:16:11.021Z,5.00
2023-04-20T06:18:38.459Z,5.00
2023-04-20T06:21:05.795Z,5.10
2023-04-20T06:23:33.193Z,5.20
2023-04-20T06:26:00.633Z,5.20
2023-04-20T06:28:28.003Z,5.30
2023-04-20T06:30:55.529Z,5.40
2023-04-20T06:33:22.828Z,5.50
2023-04-20T06:35:51.672Z,5.60
2023-04-20T06:38:18.951Z,5.70
2023-04-20T06:40:46.359Z,5.90
2023-04-20T06:43:13.769Z,6.00
2023-04-20T06:45:41.333Z,6.10
2023-04-20T06:48:20.220Z,6.20
2023-04-20T06:50:55.123Z,6.30
2023-04-20T06:53:22.644Z,6.40
2023-04-20T06:55:49.992Z,6.50
2023-04-20T06:58:17.265Z,6.50
2023-04-20T07:00:44.513Z,6.70
2023-04-20T07:03:12.034Z,6.70
2023-04-20T07:05:39.445Z,6.80
2023-04-20T07:08:06.953Z,6.80
2023-04-20T07:10:34.176Z,6.80
2023-04-20T07:13:01.406Z,6.90
2023-04-20T07:15:28.666Z,6.90
2023-04-20T07:17:55.973Z,7.00
2023-04-20T07:20:23.356Z,7.20
2023-04-20T07:22:50.560Z,7.30
2023-04-20T07:25:17.926Z,7.40
2023-04-20T07:27:45.324Z,7.60
2023-04-20T07:30:12.945Z,7.70
2023-04-20T07:32:41.728Z,7.80
2023-04-20T07:35:09.580Z,7.80
2023-04-20T07:37:37.034Z,7.90
2023-04-20T07:40:07.767Z,7.90
2023-04-20T07:42:37.236Z,7.90
2023-04-20T07:45:05.969Z,8.00
2023-04-20T07:47:34.918Z,8.10
2023-04-20T07:50:02.532Z,8.20
2023-04-20T07:52:29.864Z,8.30
2023-04-20T07:54:59.347Z,8.40
2023-04-20T07:57:28.226Z,8.60
2023-04-20T07:59:55.545Z,8.70
2023-04-20T08:02:23.072Z,8.90
2023-04-20T08:04:50.970Z,9.20
2023-04-20T08:07:19.396Z,9.40
2023-04-20T08:09:46.601Z,9.50
2023-04-20T08:12:13.918Z,9.50
2023-04-20T08:14:41.454Z,9.80
2023-04-20T08:17:08.754Z,10.00
2023-04-20T08:19:36.354Z,10.00
2023-04-20T08:22:04.528Z,10.20
2023-04-20T08:24:32.228Z,10.50
2023-04-20T08:26:59.533Z,10.50
2023-04-20T08:29:26.915Z,10.70
2023-04-20T08:31:54.364Z,10.80
2023-04-20T08:34:22.117Z,11.00
2023-04-20T08:36:49.417Z,11.10
2023-04-20T08:39:21.869Z,11.40
2023-04-20T08:41:53.813Z,11.40
2023-04-20T08:44:21.752Z,11.60
2023-04-20T08:46:50.089Z,11.70
2023-04-20T08:49:19.073Z,11.80
2023-04-20T08:51:48.218Z,11.60
2023-04-20T08:54:16.930Z,11.60
2023-04-20T08:56:46.673Z,11.70
2023-04-20T08:59:14.972Z,11.70
2023-04-20T09:01:43.278Z,11.80
2023-04-20T09:04:27.297Z,12.00
2023-04-20T09:06:56.543Z,12.20
2023-04-20T09:09:25.738Z,12.20
2023-04-20T09:12:07.976Z,12.50
2023-04-20T09:14:46.319Z,12.60
2023-04-20T09:17:16.135Z,12.90
2023-04-20T09:19:53.435Z,13.10
2023-04-20T09:22:34.048Z,13.00
2023-04-20T09:25:12.172Z,13.20
2023-04-20T09:27:39.477Z,13.20
2023-04-20T09:30:07.943Z,13.20
2023-04-20T09:32:35.880Z,13.30
2023-04-20T09:35:03.160Z,13.50
2023-04-20T09:37:30.719Z,13.40
2023-04-20T09:40:00.881Z,13.60
2023-04-20T09:42:29.066Z,13.90
2023-04-20T09:44:57.535Z,14.00
2023-04-20T09:47:26.919Z,13.70
2023-04-20T09:49:54.879Z,13.60
2023-04-20T09:52:24.345Z,13.80
2023-04-20T09:54:52.084Z,13.90
2023-04-20T09:57:19.901Z,13.60
2023-04-20T09:59:47.590Z,13.60
2023-04-20T10:02:15.244Z,13.60
2023-04-20T10:04:57.279Z,13.40
2023-04-20T10:07:28.990Z,13.10
2023-04-20T10:10:07.690Z,13.30
2023-04-20T10:12:46.898Z,13.00
2023-04-20T10:15:14.353Z,12.80
2023-04-20T10:17:41.805Z,13.10
2023-04-20T10:20:27.731Z,13.30
2023-04-20T10:23:10.504Z,13.30
2023-04-20T10:25:37.873Z,12.80
2023-04-20T10:28:10.548Z,12.80
2023-04-20T10:30:49.617Z,12.80
2023-04-20T10:33:18.135Z,13.00
2023-04-20T10:35:49.748Z,13.20
2023-04-20T10:38:37.473Z,13.20
2023-04-20T10:41:12.226Z,13.20
2023-04-20T10:43:43.422Z,13.30
2023-04-20T10:46:24.905Z,13.50
2023-04-20T10:48:53.172Z,13.40
2023-04-20T10:51:21.274Z,13.30
2023-04-20T10:54:08.483Z,13.40
2023-04-20T10:56:45.906Z,13.30
2023-04-20T10:59:28.629Z,13.50
2023-04-20T11:01:56.230Z,13.20
2023-04-20T11:04:31.734Z,12.90
2023-04-20T11:07:10.600Z,12.90
2023-04-20T11:09:42.602Z,12.90
2023-04-20T11:12:12.697Z,13.10
2023-04-20T11:14:52.700Z,13.30
2023-04-20T11:17:20.317Z,13.30
2023-04-20T11:19:47.791Z,13.80
2023-04-20T11:22:23.484Z,14.30
2023-04-20T11:24:50.899Z,14.50
2023-04-20T11:27:24.983Z,15.00
2023-04-20T11:29:59.840Z,15.20
2023-04-20T11:32:27.581Z,15.60
2023-04-20T11:35:06.410Z,15.60
2023-04-20T11:37:46.394Z,15.60
2023-04-20T11:40:15.207Z,15.50
2023-04-20T11:42:42.593Z,15.50
2023-04-20T11:45:11.754Z,15.30
2023-04-20T11:47:41.633Z,15.60
2023-04-20T11:50:10.464Z,15.40
2023-04-20T11:52:37.783Z,15.20
2023-04-20T11:55:06.009Z,14.90
2023-04-20T11:57:34.684Z,14.20
2023-04-20T12:00:02.069Z,13.80
2023-04-20T12:02:29.484Z,13.00
2023-04-20T12:04:57.158Z,12.90
2023-04-20T12:07:24.487Z,12.80
2023-04-20T12:09:51.737Z,12.60
2023-04-20T12:12:19.073Z,12.50
2023-04-20T12:14:46.360Z,12.30
2023-04-20T12:17:13.606Z,11.90
2023-04-20T12:19:40.846Z,11.90
2023-04-20T12:22:08.126Z,11.80
2023-04-20T12:24:35.351Z,11.80
2023-04-20T12:27:03.974Z,11.60
2023-04-20T12:29:33.125Z,11.60
2023-04-20T12:32:00.520Z,11.50
2023-04-20T12:34:27.885Z,11.50
2023-04-20T12:36:55.150Z,11.30
2023-04-20T12:39:22.526Z,11.20
2023-04-20T12:41:49.796Z,11.30
2023-04-20T12:44:17.737Z,11.40
2023-04-20T12:46:45.570Z,11.20
2023-04-20T12:49:12.821Z,11.00
2023-04-20T12:51:40.929Z,11.20
2023-04-20T12:54:08.616Z,11.20
2023-04-20T12:56:36.831Z,11.10
2023-04-20T12:59:04.195Z,11.10
2023-04-20T13:01:31.489Z,11.10
2023-04-20T13:03:58.920Z,11.10
2023-04-20T13:06:26.791Z,11.20
2023-04-20T13:08:54.225Z,11.20
2023-04-20T13:11:22.160Z,11.00
2023-04-20T13:13:49.407Z,10.90
2023-04-20T13:16:16.829Z,10.90
2023-04-20T13:18:44.142Z,11.00
2023-04-20T13:21:11.458Z,11.20
2023-04-20T13:23:40.018Z,11.10
2023-04-20T13:26:08.093Z,11.20
2023-04-20T13:28:35.477Z,11.30
2023-04-20T13:31:02.714Z,11.40
2023-04-20T13:33:30.347Z,11.40
2023-04-20T13:35:57.903Z,11.50
2023-04-20T13:38:25.258Z,11.40
2023-04-20T13:40:52.489Z,11.60
2023-04-20T13:43:21.467Z,11.80
2023-04-20T13:45:49.176Z,12.00
2023-04-20T13:48:16.533Z,12.10
2023-04-20T13:50:43.845Z,12.10
2023-04-20T13:53:11.115Z,12.40
2023-04-20T13:55:38.362Z,12.40
2023-04-20T13:58:05.637Z,12.50
2023-04-20T14:00:34.660Z,12.50
2023-04-20T14:03:02.466Z,12.40
2023-04-20T14:05:29.973Z,12.50
2023-04-20T14:08:01.480Z,12.60
2023-04-20T14:10:29.257Z,12.70
2023-04-20T14:12:56.690Z,12.60
2023-04-20T14:15:23.981Z,12.50
2023-04-20T14:17:52.657Z,12.30
2023-04-20T14:20:20.409Z,12.20
2023-04-20T14:22:47.738Z,12.10
2023-04-20T14:25:15.188Z,12.20
2023-04-20T14:27:42.552Z,12.30
2023-04-20T14:30:10.870Z,12.30
2023-04-20T14:32:38.142Z,12.40
2023-04-20T14:35:06.168Z,12.40
2023-04-20T14:37:33.514Z,12.50
2023-04-20T14:40:00.800Z,12.90
2023-04-20T14:42:28.075Z,12.80
2023-04-20T14:44:55.317Z,12.60
2023-04-20T14:47:22.598Z,12.60
2023-04-20T14:49:49.900Z,12.60
2023-04-20T14:52:17.210Z,12.60
2023-04-20T14:54:44.437Z,12.70
2023-04-20T14:57:11.658Z,12.90
2023-04-20T14:59:41.454Z,12.80
2023-04-20T15:02:08.946Z,12.80
2023-04-20T15:04:36.844Z,12.90
2023-04-20T15:07:04.339Z,12.70
2023-04-20T15:09:32.805Z,12.70
2023-04-20T15:12:00.136Z,12.60
2023-04-20T15:14:27.831Z,12.50
2023-04-20T15:16:55.340Z,12.50
2023-04-20T15:19:25.537Z,12.70
2023-04-20T15:21:52.754Z,12.80
2023-04-20T15:24:20.297Z,12.90
2023-04-20T15:26:47.757Z,12.90
2023-04-20T15:29:15.071Z,12.80
2023-04-20T15:31:43.571Z,12.60
2023-04-20T15:34:11.406Z,12.60
2023-04-20T15:36:38.747Z,12.40
2023-04-20T15:39:06.024Z,12.50
2023-04-20T15:41:33.379Z,12.40
2023-04-20T15:44:00.609Z,12.40
2023-04-20T15:46:27.904Z,12.40
2023-04-20T15:48:55.200Z,12.40
2023-04-20T15:51:22.814Z,12.50
2023-04-20T15:53:50.937Z,12.60
2023-04-20T15:56:18.879Z,12.60
2023-04-20T15:58:46.422Z,12.70
2023-04-20T16:01:13.729Z,12.70
2023-04-20T16:03:43.753Z,12.70
2023-04-20T16:06:31.736Z,12.90
2023-04-20T16:09:17.733Z,13.10
2023-04-20T16:11:45.023Z,13.90
2023-04-20T16:14:12.266Z,15.10
2023-04-20T16:16:39.533Z,17.00
2023-04-20T16:19:06.731Z,19.20
2023-04-20T16:21:34.663Z,20.40
2023-04-20T16:24:01.915Z,20.00
2023-04-20T16:26:29.241Z,19.30
2023-04-20T16:28:56.606Z,18.30
2023-04-20T16:31:24.179Z,17.90
2023-04-20T16:33:51.464Z,17.50
2023-04-20T16:36:18.791Z,16.70
2023-04-20T16:38:46.008Z,16.10
2023-04-20T16:41:13.309Z,15.60
2023-04-20T16:43:41.093Z,15.30
2023-04-20T16:46:12.889Z,14.80
2023-04-20T16:48:40.577Z,14.80
2023-04-20T16:51:09.775Z,14.90
2023-04-20T16:53:37.148Z,15.50
2023-04-20T16:56:04.472Z,16.40
2023-04-20T16:58:31.740Z,17.50
2023-04-20T17:00:59.093Z,17.90
2023-04-20T17:03:26.655Z,17.70
2023-04-20T17:05:54.049Z,17.20
2023-04-20T17:08:21.601Z,16.10
2023-04-20T17:10:48.880Z,15.40
2023-04-20T17:13:16.326Z,14.70
2023-04-20T17:15:45.135Z,14.10
2023-04-20T17:18:12.609Z,13.60
2023-04-20T17:20:41.789Z,13.10
2023-04-20T17:23:09.196Z,12.80
2023-04-20T17:25:36.459Z,12.60
2023-04-20T17:28:03.818Z,12.40
2023-04-20T17:30:31.304Z,12.20
2023-04-20T17:33:00.707Z,11.90
2023-04-20T17:35:27.982Z,11.90
2023-04-20T17:37:55.404Z,11.70
2023-04-20T17:40:22.684Z,11.60
2023-04-20T17:42:49.907Z,11.50
2023-04-20T17:45:17.442Z,11.40
2023-04-20T17:47:44.931Z,11.30
2023-04-20T17:50:13.692Z,11.20
2023-04-20T17:52:40.951Z,11.10
2023-04-20T17:55:08.998Z,11.00
2023-04-20T17:57:36.300Z,11.00
2023-04-20T18:00:05.261Z,10.90
2023-04-20T18:02:40.376Z,10.80
2023-04-20T18:05:08.160Z,10.80
2023-04-20T18:07:35.440Z,10.70
2023-04-20T18:10:03.981Z,10.70
2023-04-20T18:12:31.236Z,10.70
2023-04-20T18:14:58.532Z,10.60
2023-04-20T18:17:25.848Z,10.60
2023-04-20T18:19:53.136Z,10.50
2023-04-20T18:22:20.415Z,10.50
2023-04-20T18:24:47.656Z,10.50
2023-04-20T18:27:14.973Z,10.40
2023-04-20T18:29:42.244Z,10.40
2023-04-20T18:32:09.461Z,10.30
2023-04-20T18:34:36.962Z,10.30
2023-04-20T18:37:04.272Z,10.30
2023-04-20T18:39:31.566Z,10.30
2023-04-20T18:41:58.809Z,10.30
2023-04-20T18:44:28.364Z,10.20
2023-04-20T18:46:55.897Z,10.10
2023-04-20T18:49:23.287Z,10.00
2023-04-20T18:51:50.649Z,9.90
2023-04-20T18:54:18.211Z,9.80
2023-04-20T18:56:45.921Z,9.80
2023-04-20T18:59:13.249Z,9.70
2023-04-20T19:01:41.617Z,9.70
2023-04-20T19:04:09.278Z,9.70
2023-04-20T19:06:36.858Z,9.80
2023-04-20T19:09:06.539Z,9.80
2023-04-20T19:11:35.347Z,9.80
2023-04-20T19:14:02.839Z,9.80
2023-04-20T19:16:34.272Z,9.90
2023-04-20T19:19:03.077Z,9.90
2023-04-20T19:21:32.383Z,9.90
2023-04-20T19:23:59.752Z,9.90
2023-04-20T19:26:27.206Z,9.90
2023-04-20T19:28:54.618Z,9.90
2023-04-20T19:31:22.041Z,9.90
2023-04-20T19:33:49.358Z,9.90
2023-04-20T19:36:18.105Z,9.90
2023-04-20T19:38:45.996Z,9.90
2023-04-20T19:41:13.478Z,9.90
2023-04-20T19:43:41.124Z,9.90
2023-04-20T19:46:09.996Z,9.90
2023-04-20T19:48:37.638Z,9.90
2023-04-20T19:51:06.257Z,9.90
2023-04-20T19:53:34.092Z,9.90
2023-04-20T19:56:02.338Z,9.90
2023-04-20T19:58:30.653Z,9.90
2023-04-20T20:00:57.999Z,9.90
2023-04-20T20:03:25.590Z,9.80
2023-04-20T20:05:53.106Z,9.90
2023-04-20T20:08:20.562Z,9.90
2023-04-20T20:10:47.792Z,9.90
2023-04-20T20:13:15.132Z,9.80
2023-04-20T20:15:42.738Z,9.90
2023-04-20T20:18:12.518Z,9.90
2023-04-20T20:20:42.041Z,9.90
2023-04-20T20:23:09.722Z,9.90
2023-04-20T20:25:38.004Z,9.90
2023-04-20T20:28:05.827Z,9.90
2023-04-20T20:30:33.545Z,9.90
2023-04-20T20:33:01.202Z,9.90
2023-04-20T20:35:31.782Z,9.90
2023-04-20T20:38:00.309Z,9.80
2023-04-20T20:40:27.494Z,9.80
2023-04-20T20:42:54.756Z,9.80
2023-04-20T20:45:22.178Z,9.70
2023-04-20T20:47:49.937Z,9.70
2023-04-20T20:50:17.533Z,9.50
2023-04-20T20:52:44.782Z,9.50
2023-04-20T20:55:12.305Z,9.50
2023-04-20T20:57:39.697Z,9.40
2023-04-20T21:00:09.946Z,9.40
2023-04-20T21:02:37.429Z,9.30
2023-04-20T21:05:05.505Z,9.40
2023-04-20T21:07:32.828Z,9.40
2023-04-20T21:10:00.392Z,9.40
2023-04-20T21:12:27.658Z,9.50
2023-04-20T21:14:54.993Z,9.50
2023-04-20T21:17:22.282Z,9.60
2023-04-20T21:19:49.553Z,9.60
2023-04-20T21:22:16.851Z,9.70
2023-04-20T21:24:44.081Z,9.70
2023-04-20T21:27:11.435Z,9.70
2023-04-20T21:29:38.737Z,9.70
2023-04-20T21:32:06.073Z,9.70
2023-04-20T21:34:33.433Z,9.70
2023-04-20T21:37:04.239Z,9.80
2023-04-20T21:39:34.996Z,9.70
2023-04-20T21:42:03.408Z,9.80
2023-04-20T21:44:30.818Z,9.80
2023-04-20T21:46:58.112Z,9.80
2023-04-20T21:49:26.373Z,9.80
2023-04-20T21:51:53.654Z,9.70
2023-04-20T21:54:20.967Z,9.70
2023-04-20T21:56:48.260Z,9.70
2023-04-20T21:59:15.773Z,9.70
2023-04-20T22:01:43.095Z,9.80
2023-04-20T22:04:10.652Z,9.80
2023-04-20T22:06:38.172Z,9.80
2023-04-20T22:09:05.563Z,9.80
2023-04-20T22:11:36.654Z,9.80
2023-04-20T22:14:05.016Z,9.80
2023-04-20T22:16:34.082Z,9.80
2023-04-20T22:19:01.553Z,9.80
2023-04-20T22:21:28.936Z,9.80
2023-04-20T22:23:56.216Z,9.80
2023-04-20T22:26:23.522Z,9.80
2023-04-20T22:28:50.993Z,9.80
2023-04-20T22:31:18.379Z,9.80
2023-04-20T22:33:45.767Z,9.80
2023-04-20T22:36:13.247Z,9.80
2023-04-20T22:38:40.642Z,9.90
2023-04-20T22:41:08.033Z,9.90
2023-04-20T22:43:35.362Z,9.80
2023-04-20T22:46:02.579Z,9.80
2023-04-20T22:48:29.879Z,9.80
2023-04-20T22:51:00.795Z,9.90
2023-04-20T22:53:30.216Z,9.90
2023-04-20T22:56:05.579Z,9.90
2023-04-20T22:58:34.081Z,9.90
2023-04-20T23:01:01.378Z,9.90
2023-04-20T23:03:29.007Z,9.90
2023-04-20T23:05:57.723Z,9.90
2023-04-20T23:08:25.816Z,9.90
2023-04-20T23:10:56.226Z,9.90
2023-04-20T23:13:26.502Z,9.90
2023-04-20T23:15:54.001Z,9.90
2023-04-20T23:18:21.463Z,9.90
2023-04-20T23:20:48.737Z,9.90
2023-04-20T23:23:16.036Z,9.90
2023-04-20T23:25:43.879Z,9.90
2023-04-20T23:28:11.247Z,9.90
2023-04-20T23:30:38.559Z,9.90
2023-04-20T23:33:05.928Z,9.90
2023-04-20T23:35:33.641Z,9.80
2023-04-20T23:38:01.111Z,9.80
2023-04-20T23:40:28.379Z,9.80
2023-04-20T23:42:55.821Z,9.80
2023-04-20T23:45:23.485Z,9.80
2023-04-20T23:47:50.787Z,9.80
2023-04-20T23:50:18.076Z,9.80
2023-04-20T23:52:45.413Z,9.80
2023-04-20T23:55:12.665Z,9.80
2023-04-20T23:57:40.020Z,9.80
